sensor_id;sensor_type;location;lat;lon;timestamp;P1;durP1;ratioP1;P2;durP2;ratioP2
35745;SDS011;21870;42.812;74.628;2022-11-18T00:02:17;7.70;;;5.32;;
35745;SDS011;21870;42.812;74.628;2022-11-18T00:04:43;9.68;;;5.28;;
35745;SDS011;21870;42.812;74.628;2022-11-18T00:07:09;8.32;;;5.40;;
35745;SDS011;21870;42.812;74.628;2022-11-18T00:09:35;10.27;;;7.40;;
35745;SDS011;21870;42.812;74.628;2022-11-18T00:12:01;10.10;;;5.07;;
35745;SDS011;21870;42.812;74.628;2022-11-18T00:14:46;8.02;;;4.88;;
35745;SDS011;21870;42.812;74.628;2022-11-18T00:17:12;6.40;;;5.10;;
35745;SDS011;21870;42.812;74.628;2022-11-18T00:19:38;7.40;;;5.00;;
35745;SDS011;21870;42.812;74.628;2022-11-18T00:22:05;6.30;;;4.65;;
35745;SDS011;21870;42.812;74.628;2022-11-18T00:24:32;7.15;;;5.43;;
35745;SDS011;21870;42.812;74.628;2022-11-18T00:26:59;9.38;;;8.40;;
35745;SDS011;21870;42.812;74.628;2022-11-18T00:29:25;5.45;;;4.85;;
35745;SDS011;21870;42.812;74.628;2022-11-18T00:31:52;27.77;;;20.70;;
35745;SDS011;21870;42.812;74.628;2022-11-18T00:34:19;12.15;;;10.57;;
35745;SDS011;21870;42.812;74.628;2022-11-18T00:36:45;5.07;;;4.25;;
35745;SDS011;21870;42.812;74.628;2022-11-18T00:39:13;2.92;;;2.70;;
35745;SDS011;21870;42.812;74.628;2022-11-18T00:41:42;2.55;;;2.35;;
35745;SDS011;21870;42.812;74.628;2022-11-18T00:44:27;2.28;;;2.05;;
35745;SDS011;21870;42.812;74.628;2022-11-18T00:46:53;2.70;;;2.50;;
35745;SDS011;21870;42.812;74.628;2022-11-18T00:49:19;2.88;;;2.65;;
35745;SDS011;21870;42.812;74.628;2022-11-18T00:51:45;2.47;;;2.28;;
35745;SDS011;21870;42.812;74.628;2022-11-18T00:54:12;1.90;;;1.80;;
35745;SDS011;21870;42.812;74.628;2022-11-18T00:56:38;2.97;;;2.67;;
35745;SDS011;21870;42.812;74.628;2022-11-18T00:59:04;2.40;;;2.25;;
35745;SDS011;21870;42.812;74.628;2022-11-18T01:01:30;2.88;;;2.67;;
35745;SDS011;21870;42.812;74.628;2022-11-18T01:03:56;3.70;;;3.40;;
35745;SDS011;21870;42.812;74.628;2022-11-18T01:06:22;4.63;;;3.20;;
35745;SDS011;21870;42.812;74.628;2022-11-18T01:08:49;24.52;;;20.85;;
35745;SDS011;21870;42.812;74.628;2022-11-18T01:11:15;3.35;;;3.05;;
35745;SDS011;21870;42.812;74.628;2022-11-18T01:14:00;2.78;;;2.58;;
35745;SDS011;21870;42.812;74.628;2022-11-18T01:16:26;2.78;;;2.58;;
35745;SDS011;21870;42.812;74.628;2022-11-18T01:18:53;17.70;;;15.93;;
35745;SDS011;21870;42.812;74.628;2022-11-18T01:21:20;11.40;;;9.45;;
35745;SDS011;21870;42.812;74.628;2022-11-18T01:23:47;5.57;;;5.07;;
35745;SDS011;21870;42.812;74.628;2022-11-18T01:26:14;2.47;;;2.38;;
35745;SDS011;21870;42.812;74.628;2022-11-18T01:28:41;4.22;;;2.70;;
35745;SDS011;21870;42.812;74.628;2022-11-18T01:31:09;4.93;;;4.47;;
35745;SDS011;21870;42.812;74.628;2022-11-18T01:33:38;5.85;;;3.70;;
35745;SDS011;21870;42.812;74.628;2022-11-18T01:36:14;3.22;;;2.92;;
35745;SDS011;21870;42.812;74.628;2022-11-18T01:38:42;3.70;;;3.30;;
35745;SDS011;21870;42.812;74.628;2022-11-18T01:41:08;3.28;;;3.05;;
35745;SDS011;21870;42.812;74.628;2022-11-18T01:46:12;3.95;;;3.50;;
35745;SDS011;21870;42.812;74.628;2022-11-18T01:48:38;3.83;;;3.53;;
35745;SDS011;21870;42.812;74.628;2022-11-18T01:51:05;6.72;;;4.50;;
35745;SDS011;21870;42.812;74.628;2022-11-18T01:53:37;4.53;;;3.92;;
35745;SDS011;21870;42.812;74.628;2022-11-18T01:56:07;5.05;;;4.15;;
35745;SDS011;21870;42.812;74.628;2022-11-18T01:58:46;4.30;;;3.78;;
35745;SDS011;21870;42.812;74.628;2022-11-18T02:01:17;5.72;;;3.42;;
35745;SDS011;21870;42.812;74.628;2022-11-18T02:03:43;7.20;;;3.65;;
35745;SDS011;21870;42.812;74.628;2022-11-18T02:06:10;3.97;;;3.58;;
35745;SDS011;21870;42.812;74.628;2022-11-18T02:08:37;4.75;;;3.63;;
35745;SDS011;21870;42.812;74.628;2022-11-18T02:11:05;4.47;;;4.00;;
35745;SDS011;21870;42.812;74.628;2022-11-18T02:13:55;4.82;;;3.33;;
35745;SDS011;21870;42.812;74.628;2022-11-18T02:16:25;3.78;;;3.42;;
35745;SDS011;21870;42.812;74.628;2022-11-18T02:19:13;3.33;;;3.03;;
35745;SDS011;21870;42.812;74.628;2022-11-18T02:24:51;19.08;;;10.40;;
35745;SDS011;21870;42.812;74.628;2022-11-18T02:28:03;19.00;;;11.82;;
35745;SDS011;21870;42.812;74.628;2022-11-18T02:31:28;19.92;;;13.38;;
35745;SDS011;21870;42.812;74.628;2022-11-18T02:36:19;21.50;;;13.57;;
35745;SDS011;21870;42.812;74.628;2022-11-18T02:39:02;25.33;;;18.13;;
35745;SDS011;21870;42.812;74.628;2022-11-18T02:41:33;32.05;;;22.02;;
35745;SDS011;21870;42.812;74.628;2022-11-18T02:44:13;28.42;;;20.88;;
35745;SDS011;21870;42.812;74.628;2022-11-18T02:46:41;32.85;;;19.88;;
35745;SDS011;21870;42.812;74.628;2022-11-18T02:49:14;333.90;;;246.20;;
35745;SDS011;21870;42.812;74.628;2022-11-18T02:51:45;92.13;;;67.68;;
35745;SDS011;21870;42.812;74.628;2022-11-18T02:54:14;33.55;;;26.30;;
35745;SDS011;21870;42.812;74.628;2022-11-18T02:56:43;30.13;;;23.20;;
35745;SDS011;21870;42.812;74.628;2022-11-18T02:59:16;45.00;;;33.28;;
35745;SDS011;21870;42.812;74.628;2022-11-18T03:01:43;75.35;;;46.92;;
35745;SDS011;21870;42.812;74.628;2022-11-18T03:04:10;83.55;;;51.55;;
35745;SDS011;21870;42.812;74.628;2022-11-18T03:06:38;86.97;;;61.15;;
35745;SDS011;21870;42.812;74.628;2022-11-18T03:09:28;34.15;;;22.70;;
35745;SDS011;21870;42.812;74.628;2022-11-18T03:18:40;22.13;;;14.23;;
35745;SDS011;21870;42.812;74.628;2022-11-18T03:21:18;30.35;;;16.38;;
35745;SDS011;21870;42.812;74.628;2022-11-18T03:24:36;25.02;;;16.23;;
35745;SDS011;21870;42.812;74.628;2022-11-18T03:26:59;26.25;;;17.95;;
35745;SDS011;21870;42.812;74.628;2022-11-18T03:29:41;35.45;;;21.33;;
35745;SDS011;21870;42.812;74.628;2022-11-18T03:32:18;18.17;;;15.05;;
35745;SDS011;21870;42.812;74.628;2022-11-18T03:34:49;20.40;;;13.65;;
35745;SDS011;21870;42.812;74.628;2022-11-18T03:37:20;26.85;;;15.25;;
35745;SDS011;21870;42.812;74.628;2022-11-18T03:39:53;18.98;;;13.98;;
35745;SDS011;21870;42.812;74.628;2022-11-18T03:42:28;21.40;;;14.70;;
35745;SDS011;21870;42.812;74.628;2022-11-18T03:45:00;17.65;;;12.68;;
35745;SDS011;21870;42.812;74.628;2022-11-18T03:47:32;19.50;;;13.57;;
35745;SDS011;21870;42.812;74.628;2022-11-18T03:50:10;27.70;;;18.85;;
35745;SDS011;21870;42.812;74.628;2022-11-18T03:52:41;31.58;;;19.48;;
35745;SDS011;21870;42.812;74.628;2022-11-18T03:55:13;26.05;;;17.58;;
35745;SDS011;21870;42.812;74.628;2022-11-18T03:57:56;12.82;;;10.52;;
35745;SDS011;21870;42.812;74.628;2022-11-18T04:00:31;11.30;;;9.13;;
35745;SDS011;21870;42.812;74.628;2022-11-18T04:03:03;17.60;;;9.02;;
35745;SDS011;21870;42.812;74.628;2022-11-18T04:05:34;11.10;;;6.82;;
35745;SDS011;21870;42.812;74.628;2022-11-18T04:08:10;7.78;;;5.22;;
35745;SDS011;21870;42.812;74.628;2022-11-18T04:10:46;8.35;;;5.47;;
35745;SDS011;21870;42.812;74.628;2022-11-18T04:13:32;10.48;;;5.38;;
35745;SDS011;21870;42.812;74.628;2022-11-18T04:16:00;10.57;;;5.85;;
35745;SDS011;21870;42.812;74.628;2022-11-18T04:18:27;11.00;;;8.45;;
35745;SDS011;21870;42.812;74.628;2022-11-18T04:20:53;22.77;;;16.15;;
35745;SDS011;21870;42.812;74.628;2022-11-18T04:23:19;28.55;;;17.90;;
35745;SDS011;21870;42.812;74.628;2022-11-18T04:25:45;24.52;;;16.38;;
35745;SDS011;21870;42.812;74.628;2022-11-18T04:28:11;23.67;;;13.50;;
35745;SDS011;21870;42.812;74.628;2022-11-18T04:30:37;25.23;;;11.82;;
35745;SDS011;21870;42.812;74.628;2022-11-18T04:33:03;12.50;;;9.45;;
35745;SDS011;21870;42.812;74.628;2022-11-18T04:35:29;10.10;;;6.70;;
35745;SDS011;21870;42.812;74.628;2022-11-18T04:37:55;10.65;;;5.32;;
35745;SDS011;21870;42.812;74.628;2022-11-18T04:40:21;9.07;;;5.07;;
35745;SDS011;21870;42.812;74.628;2022-11-18T04:42:47;5.38;;;3.72;;
35745;SDS011;21870;42.812;74.628;2022-11-18T04:45:13;7.47;;;4.35;;
35745;SDS011;21870;42.812;74.628;2022-11-18T04:47:39;6.65;;;4.20;;
35745;SDS011;21870;42.812;74.628;2022-11-18T04:50:06;6.43;;;4.43;;
35745;SDS011;21870;42.812;74.628;2022-11-18T04:52:32;6.32;;;5.38;;
35745;SDS011;21870;42.812;74.628;2022-11-18T04:54:58;4.78;;;4.13;;
35745;SDS011;21870;42.812;74.628;2022-11-18T04:57:24;5.10;;;4.60;;
35745;SDS011;21870;42.812;74.628;2022-11-18T04:59:50;6.53;;;4.60;;
35745;SDS011;21870;42.812;74.628;2022-11-18T05:02:16;6.20;;;4.82;;
35745;SDS011;21870;42.812;74.628;2022-11-18T05:04:42;7.68;;;6.28;;
35745;SDS011;21870;42.812;74.628;2022-11-18T05:07:11;12.57;;;8.73;;
35745;SDS011;21870;42.812;74.628;2022-11-18T05:09:39;13.38;;;9.95;;
35745;SDS011;21870;42.812;74.628;2022-11-18T05:12:08;9.65;;;8.65;;
35745;SDS011;21870;42.812;74.628;2022-11-18T05:14:56;12.50;;;9.32;;
35745;SDS011;21870;42.812;74.628;2022-11-18T05:17:23;6.65;;;4.90;;
35745;SDS011;21870;42.812;74.628;2022-11-18T05:19:49;6.20;;;5.28;;
35745;SDS011;21870;42.812;74.628;2022-11-18T05:22:15;10.82;;;6.82;;
35745;SDS011;21870;42.812;74.628;2022-11-18T05:24:41;9.75;;;8.38;;
35745;SDS011;21870;42.812;74.628;2022-11-18T05:27:07;13.40;;;9.32;;
35745;SDS011;21870;42.812;74.628;2022-11-18T05:29:33;14.23;;;10.23;;
35745;SDS011;21870;42.812;74.628;2022-11-18T05:31:59;11.60;;;9.48;;
35745;SDS011;21870;42.812;74.628;2022-11-18T05:34:25;11.32;;;8.75;;
35745;SDS011;21870;42.812;74.628;2022-11-18T05:36:51;11.88;;;8.40;;
35745;SDS011;21870;42.812;74.628;2022-11-18T05:39:17;12.07;;;7.95;;
35745;SDS011;21870;42.812;74.628;2022-11-18T05:41:44;11.57;;;7.18;;
35745;SDS011;21870;42.812;74.628;2022-11-18T05:44:28;11.77;;;6.78;;
35745;SDS011;21870;42.812;74.628;2022-11-18T05:46:54;7.88;;;5.70;;
35745;SDS011;21870;42.812;74.628;2022-11-18T05:49:20;7.97;;;6.07;;
35745;SDS011;21870;42.812;74.628;2022-11-18T05:51:46;9.25;;;5.72;;
35745;SDS011;21870;42.812;74.628;2022-11-18T05:54:13;6.97;;;5.13;;
35745;SDS011;21870;42.812;74.628;2022-11-18T05:56:42;6.13;;;4.18;;
35745;SDS011;21870;42.812;74.628;2022-11-18T05:59:11;6.68;;;5.00;;
35745;SDS011;21870;42.812;74.628;2022-11-18T06:02:12;10.25;;;4.90;;
35745;SDS011;21870;42.812;74.628;2022-11-18T06:04:43;9.65;;;5.03;;
35745;SDS011;21870;42.812;74.628;2022-11-18T06:07:17;6.00;;;4.82;;
35745;SDS011;21870;42.812;74.628;2022-11-18T06:09:50;16.35;;;7.57;;
35745;SDS011;21870;42.812;74.628;2022-11-18T06:12:21;10.30;;;4.50;;
35745;SDS011;21870;42.812;74.628;2022-11-18T06:14:53;7.30;;;3.38;;
35745;SDS011;21870;42.812;74.628;2022-11-18T06:17:34;4.53;;;2.78;;
35745;SDS011;21870;42.812;74.628;2022-11-18T06:20:08;5.63;;;3.38;;
35745;SDS011;21870;42.812;74.628;2022-11-18T06:22:35;5.20;;;3.28;;
35745;SDS011;21870;42.812;74.628;2022-11-18T06:25:02;6.35;;;4.78;;
35745;SDS011;21870;42.812;74.628;2022-11-18T06:27:28;4.28;;;3.85;;
35745;SDS011;21870;42.812;74.628;2022-11-18T06:29:55;15.65;;;5.70;;
35745;SDS011;21870;42.812;74.628;2022-11-18T06:32:21;7.88;;;4.88;;
35745;SDS011;21870;42.812;74.628;2022-11-18T06:34:47;4.18;;;3.78;;
35745;SDS011;21870;42.812;74.628;2022-11-18T06:39:40;7.97;;;5.57;;
35745;SDS011;21870;42.812;74.628;2022-11-18T06:42:06;11.32;;;7.05;;
35745;SDS011;21870;42.812;74.628;2022-11-18T06:44:32;12.90;;;4.78;;
35745;SDS011;21870;42.812;74.628;2022-11-18T06:47:02;7.95;;;3.70;;
35745;SDS011;21870;42.812;74.628;2022-11-18T06:49:29;5.63;;;5.03;;
35745;SDS011;21870;42.812;74.628;2022-11-18T06:51:55;13.55;;;5.60;;
35745;SDS011;21870;42.812;74.628;2022-11-18T06:54:21;5.57;;;4.30;;
35745;SDS011;21870;42.812;74.628;2022-11-18T06:56:47;9.48;;;5.95;;
35745;SDS011;21870;42.812;74.628;2022-11-18T06:59:13;5.07;;;4.50;;
35745;SDS011;21870;42.812;74.628;2022-11-18T07:01:45;7.70;;;5.13;;
35745;SDS011;21870;42.812;74.628;2022-11-18T07:04:11;8.73;;;5.43;;
35745;SDS011;21870;42.812;74.628;2022-11-18T07:06:37;8.23;;;6.40;;
35745;SDS011;21870;42.812;74.628;2022-11-18T07:09:04;10.38;;;6.82;;
35745;SDS011;21870;42.812;74.628;2022-11-18T07:11:31;8.32;;;4.95;;
35745;SDS011;21870;42.812;74.628;2022-11-18T07:13:57;8.65;;;6.43;;
35745;SDS011;21870;42.812;74.628;2022-11-18T07:16:25;14.18;;;7.60;;
35745;SDS011;21870;42.812;74.628;2022-11-18T07:18:52;7.50;;;6.70;;
35745;SDS011;21870;42.812;74.628;2022-11-18T07:21:20;12.95;;;8.25;;
35745;SDS011;21870;42.812;74.628;2022-11-18T07:23:47;13.20;;;10.95;;
35745;SDS011;21870;42.812;74.628;2022-11-18T07:26:14;8.85;;;6.90;;
35745;SDS011;21870;42.812;74.628;2022-11-18T07:28:40;11.00;;;8.02;;
35745;SDS011;21870;42.812;74.628;2022-11-18T07:31:08;11.40;;;7.45;;
35745;SDS011;21870;42.812;74.628;2022-11-18T07:33:36;8.52;;;5.97;;
35745;SDS011;21870;42.812;74.628;2022-11-18T07:36:05;10.27;;;6.20;;
35745;SDS011;21870;42.812;74.628;2022-11-18T07:38:33;16.55;;;7.25;;
35745;SDS011;21870;42.812;74.628;2022-11-18T07:41:10;8.18;;;6.53;;
35745;SDS011;21870;42.812;74.628;2022-11-18T07:43:41;10.32;;;7.15;;
35745;SDS011;21870;42.812;74.628;2022-11-18T07:46:15;9.43;;;6.68;;
35745;SDS011;21870;42.812;74.628;2022-11-18T07:48:43;9.65;;;5.65;;
35745;SDS011;21870;42.812;74.628;2022-11-18T07:51:11;9.52;;;6.60;;
35745;SDS011;21870;42.812;74.628;2022-11-18T07:53:38;9.02;;;6.18;;
35745;SDS011;21870;42.812;74.628;2022-11-18T07:56:05;15.50;;;5.95;;
35745;SDS011;21870;42.812;74.628;2022-11-18T07:58:32;9.63;;;6.70;;
35745;SDS011;21870;42.812;74.628;2022-11-18T08:00:58;16.00;;;6.78;;
35745;SDS011;21870;42.812;74.628;2022-11-18T08:03:30;11.32;;;7.15;;
35745;SDS011;21870;42.812;74.628;2022-11-18T08:05:59;10.73;;;6.45;;
35745;SDS011;21870;42.812;74.628;2022-11-18T08:08:27;13.55;;;7.18;;
35745;SDS011;21870;42.812;74.628;2022-11-18T08:10:56;14.63;;;8.48;;
35745;SDS011;21870;42.812;74.628;2022-11-18T08:13:24;16.52;;;8.73;;
35745;SDS011;21870;42.812;74.628;2022-11-18T08:15:51;16.90;;;7.60;;
35745;SDS011;21870;42.812;74.628;2022-11-18T08:18:17;13.60;;;7.78;;
35745;SDS011;21870;42.812;74.628;2022-11-18T08:20:43;12.07;;;6.43;;
35745;SDS011;21870;42.812;74.628;2022-11-18T08:23:09;15.55;;;7.35;;
35745;SDS011;21870;42.812;74.628;2022-11-18T08:25:36;17.38;;;6.78;;
35745;SDS011;21870;42.812;74.628;2022-11-18T08:28:02;17.15;;;7.38;;
35745;SDS011;21870;42.812;74.628;2022-11-18T08:30:29;13.77;;;7.25;;
35745;SDS011;21870;42.812;74.628;2022-11-18T08:32:55;15.00;;;6.65;;
35745;SDS011;21870;42.812;74.628;2022-11-18T08:35:21;13.63;;;7.22;;
35745;SDS011;21870;42.812;74.628;2022-11-18T08:37:47;21.58;;;7.72;;
35745;SDS011;21870;42.812;74.628;2022-11-18T08:40:13;17.15;;;8.48;;
35745;SDS011;21870;42.812;74.628;2022-11-18T08:42:39;19.08;;;9.82;;
35745;SDS011;21870;42.812;74.628;2022-11-18T08:45:05;26.10;;;14.82;;
35745;SDS011;21870;42.812;74.628;2022-11-18T08:47:35;30.65;;;19.02;;
35745;SDS011;21870;42.812;74.628;2022-11-18T08:50:04;40.90;;;25.38;;
35745;SDS011;21870;42.812;74.628;2022-11-18T08:52:32;38.97;;;23.60;;
35745;SDS011;21870;42.812;74.628;2022-11-18T08:54:59;44.35;;;26.45;;
35745;SDS011;21870;42.812;74.628;2022-11-18T08:57:25;46.03;;;29.83;;
35745;SDS011;21870;42.812;74.628;2022-11-18T08:59:52;36.40;;;29.75;;
35745;SDS011;21870;42.812;74.628;2022-11-18T09:02:19;45.83;;;31.55;;
35745;SDS011;21870;42.812;74.628;2022-11-18T09:04:47;49.65;;;34.25;;
35745;SDS011;21870;42.812;74.628;2022-11-18T09:07:17;46.85;;;33.53;;
35745;SDS011;21870;42.812;74.628;2022-11-18T09:09:44;56.42;;;37.90;;
35745;SDS011;21870;42.812;74.628;2022-11-18T09:12:11;46.47;;;33.80;;
35745;SDS011;21870;42.812;74.628;2022-11-18T09:14:42;50.42;;;36.33;;
35745;SDS011;21870;42.812;74.628;2022-11-18T09:17:10;50.50;;;33.30;;
35745;SDS011;21870;42.812;74.628;2022-11-18T09:19:38;43.88;;;32.63;;
35745;SDS011;21870;42.812;74.628;2022-11-18T09:22:05;53.70;;;34.53;;
35745;SDS011;21870;42.812;74.628;2022-11-18T09:24:32;48.72;;;35.42;;
35745;SDS011;21870;42.812;74.628;2022-11-18T09:27:01;46.83;;;35.55;;
35745;SDS011;21870;42.812;74.628;2022-11-18T09:29:28;48.53;;;33.88;;
35745;SDS011;21870;42.812;74.628;2022-11-18T09:31:55;49.15;;;35.58;;
35745;SDS011;21870;42.812;74.628;2022-11-18T09:34:21;42.72;;;31.50;;
35745;SDS011;21870;42.812;74.628;2022-11-18T09:36:48;49.78;;;31.25;;
35745;SDS011;21870;42.812;74.628;2022-11-18T09:39:15;44.20;;;32.55;;
35745;SDS011;21870;42.812;74.628;2022-11-18T09:41:45;58.10;;;31.90;;
35745;SDS011;21870;42.812;74.628;2022-11-18T09:49:38;63.63;;;34.22;;
35745;SDS011;21870;42.812;74.628;2022-11-18T09:54:48;64.00;;;41.33;;
35745;SDS011;21870;42.812;74.628;2022-11-18T09:57:16;63.95;;;38.20;;
35745;SDS011;21870;42.812;74.628;2022-11-18T09:59:48;59.80;;;41.08;;
35745;SDS011;21870;42.812;74.628;2022-11-18T10:05:18;68.22;;;41.10;;
35745;SDS011;21870;42.812;74.628;2022-11-18T10:07:53;71.95;;;45.90;;
35745;SDS011;21870;42.812;74.628;2022-11-18T10:10:29;78.10;;;44.97;;
35745;SDS011;21870;42.812;74.628;2022-11-18T10:13:27;63.47;;;42.83;;
35745;SDS011;21870;42.812;74.628;2022-11-18T10:19:13;76.45;;;46.15;;
35745;SDS011;21870;42.812;74.628;2022-11-18T10:24:52;80.55;;;50.75;;
35745;SDS011;21870;42.812;74.628;2022-11-18T10:27:23;74.72;;;46.83;;
35745;SDS011;21870;42.812;74.628;2022-11-18T10:29:57;96.50;;;47.33;;
35745;SDS011;21870;42.812;74.628;2022-11-18T10:32:25;84.03;;;48.55;;
35745;SDS011;21870;42.812;74.628;2022-11-18T10:34:53;69.07;;;45.20;;
35745;SDS011;21870;42.812;74.628;2022-11-18T10:37:30;82.00;;;47.80;;
35745;SDS011;21870;42.812;74.628;2022-11-18T10:40:01;77.20;;;44.50;;
35745;SDS011;21870;42.812;74.628;2022-11-18T10:42:43;85.15;;;44.38;;
35745;SDS011;21870;42.812;74.628;2022-11-18T10:47:58;70.65;;;46.58;;
35745;SDS011;21870;42.812;74.628;2022-11-18T10:50:37;73.85;;;53.60;;
35745;SDS011;21870;42.812;74.628;2022-11-18T10:53:27;71.97;;;54.42;;
35745;SDS011;21870;42.812;74.628;2022-11-18T10:55:59;83.93;;;57.75;;
35745;SDS011;21870;42.812;74.628;2022-11-18T10:58:30;71.55;;;47.78;;
35745;SDS011;21870;42.812;74.628;2022-11-18T11:03:51;59.40;;;43.17;;
35745;SDS011;21870;42.812;74.628;2022-11-18T11:06:30;52.75;;;39.45;;
35745;SDS011;21870;42.812;74.628;2022-11-18T11:09:05;67.80;;;38.42;;
35745;SDS011;21870;42.812;74.628;2022-11-18T11:18:07;56.00;;;41.05;;
35745;SDS011;21870;42.812;74.628;2022-11-18T11:20:44;61.20;;;40.65;;
35745;SDS011;21870;42.812;74.628;2022-11-18T11:23:11;60.88;;;38.70;;
35745;SDS011;21870;42.812;74.628;2022-11-18T11:25:42;59.47;;;37.78;;
35745;SDS011;21870;42.812;74.628;2022-11-18T11:28:22;65.20;;;38.47;;
35745;SDS011;21870;42.812;74.628;2022-11-18T11:31:21;80.40;;;45.28;;
35745;SDS011;21870;42.812;74.628;2022-11-18T11:36:49;67.93;;;40.20;;
35745;SDS011;21870;42.812;74.628;2022-11-18T11:42:00;38.50;;;27.58;;
35745;SDS011;21870;42.812;74.628;2022-11-18T11:44:57;56.30;;;34.97;;
35745;SDS011;21870;42.812;74.628;2022-11-18T11:56:11;50.67;;;29.45;;
35745;SDS011;21870;42.812;74.628;2022-11-18T12:04:40;32.55;;;22.65;;
35745;SDS011;21870;42.812;74.628;2022-11-18T12:07:31;33.92;;;23.85;;
35745;SDS011;21870;42.812;74.628;2022-11-18T12:21:01;92.82;;;68.95;;
35745;SDS011;21870;42.812;74.628;2022-11-18T12:23:28;89.90;;;72.53;;
35745;SDS011;21870;42.812;74.628;2022-11-18T12:34:03;66.80;;;48.67;;
35745;SDS011;21870;42.812;74.628;2022-11-18T12:36:35;77.07;;;58.95;;
35745;SDS011;21870;42.812;74.628;2022-11-18T12:41:55;89.68;;;68.72;;
35745;SDS011;21870;42.812;74.628;2022-11-18T12:44:41;95.70;;;71.00;;
35745;SDS011;21870;42.812;74.628;2022-11-18T12:47:09;101.15;;;75.50;;
35745;SDS011;21870;42.812;74.628;2022-11-18T12:52:03;204.70;;;144.23;;
35745;SDS011;21870;42.812;74.628;2022-11-18T12:54:50;168.02;;;124.75;;
35745;SDS011;21870;42.812;74.628;2022-11-18T12:57:22;141.32;;;103.72;;
35745;SDS011;21870;42.812;74.628;2022-11-18T12:59:53;117.75;;;83.70;;
35745;SDS011;21870;42.812;74.628;2022-11-18T13:02:26;94.15;;;67.78;;
35745;SDS011;21870;42.812;74.628;2022-11-18T13:05:04;70.03;;;52.10;;
35745;SDS011;21870;42.812;74.628;2022-11-18T13:07:44;94.07;;;65.05;;
35745;SDS011;21870;42.812;74.628;2022-11-18T13:10:51;58.70;;;45.58;;
35745;SDS011;21870;42.812;74.628;2022-11-18T13:13:42;53.35;;;41.35;;
35745;SDS011;21870;42.812;74.628;2022-11-18T13:16:19;47.22;;;35.85;;
35745;SDS011;21870;42.812;74.628;2022-11-18T13:19:06;48.33;;;33.05;;
35745;SDS011;21870;42.812;74.628;2022-11-18T13:21:33;49.45;;;33.13;;
35745;SDS011;21870;42.812;74.628;2022-11-18T13:24:18;51.15;;;33.05;;
35745;SDS011;21870;42.812;74.628;2022-11-18T13:26:47;36.38;;;25.80;;
35745;SDS011;21870;42.812;74.628;2022-11-18T13:31:47;28.20;;;22.40;;
35745;SDS011;21870;42.812;74.628;2022-11-18T13:34:24;29.52;;;23.05;;
35745;SDS011;21870;42.812;74.628;2022-11-18T13:36:53;23.73;;;19.55;;
35745;SDS011;21870;42.812;74.628;2022-11-18T13:42:05;24.67;;;18.92;;
35745;SDS011;21870;42.812;74.628;2022-11-18T13:44:42;30.52;;;21.33;;
35745;SDS011;21870;42.812;74.628;2022-11-18T13:52:52;50.45;;;37.83;;
35745;SDS011;21870;42.812;74.628;2022-11-18T13:55:22;52.90;;;38.67;;
35745;SDS011;21870;42.812;74.628;2022-11-18T13:57:51;55.15;;;38.85;;
35745;SDS011;21870;42.812;74.628;2022-11-18T14:00:29;75.03;;;48.92;;
35745;SDS011;21870;42.812;74.628;2022-11-18T14:02:59;71.32;;;47.22;;
35745;SDS011;21870;42.812;74.628;2022-11-18T14:05:29;67.38;;;43.08;;
35745;SDS011;21870;42.812;74.628;2022-11-18T14:10:31;44.35;;;35.63;;
35745;SDS011;21870;42.812;74.628;2022-11-18T14:13:03;37.40;;;26.17;;
35745;SDS011;21870;42.812;74.628;2022-11-18T14:16:46;16.77;;;13.57;;
35745;SDS011;21870;42.812;74.628;2022-11-18T14:18:47;7.55;;;6.32;;
35745;SDS011;21870;42.812;74.628;2022-11-18T14:21:29;6.15;;;5.38;;
35745;SDS011;21870;42.812;74.628;2022-11-18T14:23:56;7.22;;;5.78;;
35745;SDS011;21870;42.812;74.628;2022-11-18T14:26:30;10.88;;;7.32;;
35745;SDS011;21870;42.812;74.628;2022-11-18T14:28:59;9.43;;;7.88;;
35745;SDS011;21870;42.812;74.628;2022-11-18T14:31:27;11.93;;;9.50;;
35745;SDS011;21870;42.812;74.628;2022-11-18T14:34:10;16.13;;;10.55;;
35745;SDS011;21870;42.812;74.628;2022-11-18T14:36:44;5.78;;;5.18;;
35745;SDS011;21870;42.812;74.628;2022-11-18T14:39:11;7.15;;;5.90;;
35745;SDS011;21870;42.812;74.628;2022-11-18T14:41:51;8.23;;;5.25;;
35745;SDS011;21870;42.812;74.628;2022-11-18T14:44:18;5.50;;;4.65;;
35745;SDS011;21870;42.812;74.628;2022-11-18T14:46:47;5.43;;;4.75;;
35745;SDS011;21870;42.812;74.628;2022-11-18T14:49:20;4.07;;;3.42;;
35745;SDS011;21870;42.812;74.628;2022-11-18T14:51:48;4.50;;;4.10;;
35745;SDS011;21870;42.812;74.628;2022-11-18T14:54:16;4.68;;;3.92;;
35745;SDS011;21870;42.812;74.628;2022-11-18T14:56:45;4.30;;;3.90;;
35745;SDS011;21870;42.812;74.628;2022-11-18T14:59:14;4.82;;;4.25;;
35745;SDS011;21870;42.812;74.628;2022-11-18T15:01:42;6.07;;;5.25;;
35745;SDS011;21870;42.812;74.628;2022-11-18T15:04:09;8.32;;;6.80;;
35745;SDS011;21870;42.812;74.628;2022-11-18T15:06:36;12.45;;;8.52;;
35745;SDS011;21870;42.812;74.628;2022-11-18T15:09:03;13.98;;;7.65;;
35745;SDS011;21870;42.812;74.628;2022-11-18T15:11:32;16.02;;;8.57;;
35745;SDS011;21870;42.812;74.628;2022-11-18T15:13:58;11.98;;;6.40;;
35745;SDS011;21870;42.812;74.628;2022-11-18T15:16:26;3.30;;;3.00;;
35745;SDS011;21870;42.812;74.628;2022-11-18T15:18:55;3.83;;;3.38;;
35745;SDS011;21870;42.812;74.628;2022-11-18T15:21:23;12.35;;;9.25;;
35745;SDS011;21870;42.812;74.628;2022-11-18T15:23:49;14.07;;;12.32;;
35745;SDS011;21870;42.812;74.628;2022-11-18T15:26:20;23.77;;;17.40;;
35745;SDS011;21870;42.812;74.628;2022-11-18T15:29:01;11.57;;;9.52;;
35745;SDS011;21870;42.812;74.628;2022-11-18T15:31:28;17.17;;;9.93;;
35745;SDS011;21870;42.812;74.628;2022-11-18T15:33:54;7.68;;;5.57;;
35745;SDS011;21870;42.812;74.628;2022-11-18T15:36:24;11.75;;;7.15;;
35745;SDS011;21870;42.812;74.628;2022-11-18T15:38:52;14.88;;;7.28;;
35745;SDS011;21870;42.812;74.628;2022-11-18T15:41:20;12.95;;;7.93;;
35745;SDS011;21870;42.812;74.628;2022-11-18T15:43:48;14.95;;;7.95;;
35745;SDS011;21870;42.812;74.628;2022-11-18T15:46:15;9.30;;;7.13;;
35745;SDS011;21870;42.812;74.628;2022-11-18T15:48:46;4.32;;;3.92;;
35745;SDS011;21870;42.812;74.628;2022-11-18T15:51:12;2.85;;;2.65;;
35745;SDS011;21870;42.812;74.628;2022-11-18T15:53:39;8.25;;;7.43;;
35745;SDS011;21870;42.812;74.628;2022-11-18T15:58:43;2.80;;;2.60;;
35745;SDS011;21870;42.812;74.628;2022-11-18T16:01:10;3.55;;;3.25;;
35745;SDS011;21870;42.812;74.628;2022-11-18T16:03:36;3.75;;;3.38;;
35745;SDS011;21870;42.812;74.628;2022-11-18T16:06:02;2.92;;;2.72;;
35745;SDS011;21870;42.812;74.628;2022-11-18T16:08:29;3.63;;;3.10;;
35745;SDS011;21870;42.812;74.628;2022-11-18T16:10:55;3.35;;;3.05;;
35745;SDS011;21870;42.812;74.628;2022-11-18T16:13:40;3.05;;;2.75;;
35745;SDS011;21870;42.812;74.628;2022-11-18T16:16:06;2.85;;;2.53;;
35745;SDS011;21870;42.812;74.628;2022-11-18T16:18:42;2.42;;;2.22;;
35745;SDS011;21870;42.812;74.628;2022-11-18T16:21:08;2.75;;;2.50;;
35745;SDS011;21870;42.812;74.628;2022-11-18T16:23:34;7.68;;;2.97;;
35745;SDS011;21870;42.812;74.628;2022-11-18T16:26:00;3.92;;;3.15;;
35745;SDS011;21870;42.812;74.628;2022-11-18T16:28:26;11.88;;;3.17;;
35745;SDS011;21870;42.812;74.628;2022-11-18T16:30:53;5.85;;;3.03;;